sensor_id;sensor_type;location;lat;lon;timestamp;P1;durP1;ratioP1;P2;durP2;ratioP2
62030;SDS011;62035;52.094;5.112;2022-10-31T00:01:21;9.85;;;4.57;;
62030;SDS011;62035;52.094;5.112;2022-10-31T00:03:52;8.00;;;4.38;;
62030;SDS011;62035;52.094;5.112;2022-10-31T00:06:20;13.95;;;5.03;;
62030;SDS011;62035;52.094;5.112;2022-10-31T00:08:51;10.52;;;4.80;;
62030;SDS011;62035;52.094;5.112;2022-10-31T00:11:20;11.32;;;5.35;;
62030;SDS011;62035;52.094;5.112;2022-10-31T00:13:48;10.43;;;4.93;;
62030;SDS011;62035;52.094;5.112;2022-10-31T00:16:18;12.20;;;5.28;;
62030;SDS011;62035;52.094;5.112;2022-10-31T00:18:48;10.77;;;4.85;;
62030;SDS011;62035;52.094;5.112;2022-10-31T00:21:16;7.80;;;4.40;;
62030;SDS011;62035;52.094;5.112;2022-10-31T00:23:44;10.63;;;4.40;;
62030;SDS011;62035;52.094;5.112;2022-10-31T00:26:12;8.88;;;5.13;;
62030;SDS011;62035;52.094;5.112;2022-10-31T00:28:40;12.80;;;4.82;;
62030;SDS011;62035;52.094;5.112;2022-10-31T00:31:09;13.40;;;5.00;;
62030;SDS011;62035;52.094;5.112;2022-10-31T00:33:40;12.38;;;4.47;;
62030;SDS011;62035;52.094;5.112;2022-10-31T00:36:11;11.70;;;4.80;;
62030;SDS011;62035;52.094;5.112;2022-10-31T00:38:40;8.90;;;4.40;;
62030;SDS011;62035;52.094;5.112;2022-10-31T00:41:08;10.98;;;4.47;;
62030;SDS011;62035;52.094;5.112;2022-10-31T00:43:37;12.90;;;4.70;;
62030;SDS011;62035;52.094;5.112;2022-10-31T00:46:04;11.57;;;4.88;;
62030;SDS011;62035;52.094;5.112;2022-10-31T00:48:32;10.43;;;4.47;;
62030;SDS011;62035;52.094;5.112;2022-10-31T00:51:01;11.75;;;4.95;;
62030;SDS011;62035;52.094;5.112;2022-10-31T00:53:28;19.60;;;6.22;;
62030;SDS011;62035;52.094;5.112;2022-10-31T00:55:56;12.20;;;4.93;;
62030;SDS011;62035;52.094;5.112;2022-10-31T00:58:23;8.95;;;4.85;;
62030;SDS011;62035;52.094;5.112;2022-10-31T01:00:51;12.75;;;5.15;;
62030;SDS011;62035;52.094;5.112;2022-10-31T01:03:21;11.80;;;5.88;;
62030;SDS011;62035;52.094;5.112;2022-10-31T01:05:57;11.40;;;6.30;;
62030;SDS011;62035;52.094;5.112;2022-10-31T01:08:28;15.68;;;5.15;;
62030;SDS011;62035;52.094;5.112;2022-10-31T01:10:59;9.77;;;4.85;;
62030;SDS011;62035;52.094;5.112;2022-10-31T01:13:34;8.40;;;4.60;;
62030;SDS011;62035;52.094;5.112;2022-10-31T01:16:02;14.82;;;5.57;;
62030;SDS011;62035;52.094;5.112;2022-10-31T01:18:33;16.65;;;5.43;;
62030;SDS011;62035;52.094;5.112;2022-10-31T01:21:04;11.90;;;4.45;;
62030;SDS011;62035;52.094;5.112;2022-10-31T01:23:34;10.43;;;4.88;;
62030;SDS011;62035;52.094;5.112;2022-10-31T01:26:03;7.47;;;3.85;;
62030;SDS011;62035;52.094;5.112;2022-10-31T01:28:35;11.82;;;4.57;;
62030;SDS011;62035;52.094;5.112;2022-10-31T01:31:05;8.20;;;4.43;;
62030;SDS011;62035;52.094;5.112;2022-10-31T01:33:35;10.07;;;4.80;;
62030;SDS011;62035;52.094;5.112;2022-10-31T01:36:13;10.82;;;4.82;;
62030;SDS011;62035;52.094;5.112;2022-10-31T01:38:44;10.85;;;4.72;;
62030;SDS011;62035;52.094;5.112;2022-10-31T01:41:13;8.68;;;5.03;;
62030;SDS011;62035;52.094;5.112;2022-10-31T01:43:45;9.90;;;4.60;;
62030;SDS011;62035;52.094;5.112;2022-10-31T01:46:17;11.80;;;4.65;;
62030;SDS011;62035;52.094;5.112;2022-10-31T01:48:51;8.98;;;4.57;;
62030;SDS011;62035;52.094;5.112;2022-10-31T01:51:25;9.15;;;4.93;;
62030;SDS011;62035;52.094;5.112;2022-10-31T01:54:00;9.50;;;4.38;;
62030;SDS011;62035;52.094;5.112;2022-10-31T01:56:33;12.38;;;4.88;;
62030;SDS011;62035;52.094;5.112;2022-10-31T01:59:06;12.98;;;4.80;;
62030;SDS011;62035;52.094;5.112;2022-10-31T02:01:39;10.77;;;4.72;;
62030;SDS011;62035;52.094;5.112;2022-10-31T02:04:07;15.07;;;5.50;;
62030;SDS011;62035;52.094;5.112;2022-10-31T02:06:37;32.47;;;15.07;;
62030;SDS011;62035;52.094;5.112;2022-10-31T02:09:13;14.85;;;5.93;;
62030;SDS011;62035;52.094;5.112;2022-10-31T02:11:41;14.15;;;5.68;;
62030;SDS011;62035;52.094;5.112;2022-10-31T02:14:11;12.48;;;6.28;;
62030;SDS011;62035;52.094;5.112;2022-10-31T02:16:40;13.40;;;6.05;;
62030;SDS011;62035;52.094;5.112;2022-10-31T02:19:07;12.50;;;6.25;;
62030;SDS011;62035;52.094;5.112;2022-10-31T02:21:47;13.35;;;5.93;;
62030;SDS011;62035;52.094;5.112;2022-10-31T02:24:40;12.80;;;6.25;;
62030;SDS011;62035;52.094;5.112;2022-10-31T02:27:27;14.68;;;6.22;;
62030;SDS011;62035;52.094;5.112;2022-10-31T02:30:27;17.38;;;6.18;;
62030;SDS011;62035;52.094;5.112;2022-10-31T02:33:13;10.43;;;5.90;;
62030;SDS011;62035;52.094;5.112;2022-10-31T02:35:52;10.05;;;5.88;;
62030;SDS011;62035;52.094;5.112;2022-10-31T02:38:34;15.18;;;6.13;;
62030;SDS011;62035;52.094;5.112;2022-10-31T02:41:26;10.75;;;6.05;;
62030;SDS011;62035;52.094;5.112;2022-10-31T02:44:05;11.90;;;6.28;;
62030;SDS011;62035;52.094;5.112;2022-10-31T02:46:41;9.95;;;6.38;;
62030;SDS011;62035;52.094;5.112;2022-10-31T02:49:21;11.55;;;6.53;;
62030;SDS011;62035;52.094;5.112;2022-10-31T02:51:55;12.43;;;7.22;;
62030;SDS011;62035;52.094;5.112;2022-10-31T02:54:23;12.95;;;6.82;;
62030;SDS011;62035;52.094;5.112;2022-10-31T02:56:54;15.93;;;7.50;;
62030;SDS011;62035;52.094;5.112;2022-10-31T02:59:29;14.25;;;7.30;;
62030;SDS011;62035;52.094;5.112;2022-10-31T03:02:22;13.15;;;7.32;;
62030;SDS011;62035;52.094;5.112;2022-10-31T03:05:24;17.15;;;8.45;;
62030;SDS011;62035;52.094;5.112;2022-10-31T03:08:17;18.05;;;8.00;;
62030;SDS011;62035;52.094;5.112;2022-10-31T03:10:56;15.73;;;8.52;;
62030;SDS011;62035;52.094;5.112;2022-10-31T03:13:29;19.80;;;8.65;;
62030;SDS011;62035;52.094;5.112;2022-10-31T03:16:09;15.93;;;9.05;;
62030;SDS011;62035;52.094;5.112;2022-10-31T03:18:43;19.35;;;9.52;;
62030;SDS011;62035;52.094;5.112;2022-10-31T03:21:20;17.17;;;9.90;;
62030;SDS011;62035;52.094;5.112;2022-10-31T03:23:54;21.45;;;10.43;;
62030;SDS011;62035;52.094;5.112;2022-10-31T03:26:25;25.40;;;10.70;;
62030;SDS011;62035;52.094;5.112;2022-10-31T03:28:54;25.48;;;11.30;;
62030;SDS011;62035;52.094;5.112;2022-10-31T03:31:26;22.38;;;10.65;;
62030;SDS011;62035;52.094;5.112;2022-10-31T03:34:00;22.58;;;11.18;;
62030;SDS011;62035;52.094;5.112;2022-10-31T03:36:32;21.40;;;12.15;;
62030;SDS011;62035;52.094;5.112;2022-10-31T03:39:05;26.85;;;11.52;;
62030;SDS011;62035;52.094;5.112;2022-10-31T03:41:42;21.10;;;10.73;;
62030;SDS011;62035;52.094;5.112;2022-10-31T03:44:17;22.30;;;12.27;;
62030;SDS011;62035;52.094;5.112;2022-10-31T03:46:49;21.48;;;12.18;;
62030;SDS011;62035;52.094;5.112;2022-10-31T03:49:17;22.73;;;12.15;;
62030;SDS011;62035;52.094;5.112;2022-10-31T03:51:48;23.17;;;11.60;;
62030;SDS011;62035;52.094;5.112;2022-10-31T03:54:25;26.73;;;12.57;;
62030;SDS011;62035;52.094;5.112;2022-10-31T03:57:03;24.05;;;12.13;;
62030;SDS011;62035;52.094;5.112;2022-10-31T03:59:42;18.25;;;11.80;;
62030;SDS011;62035;52.094;5.112;2022-10-31T04:02:16;29.27;;;11.80;;
62030;SDS011;62035;52.094;5.112;2022-10-31T04:04:49;22.27;;;12.88;;
62030;SDS011;62035;52.094;5.112;2022-10-31T04:07:20;26.45;;;13.10;;
62030;SDS011;62035;52.094;5.112;2022-10-31T04:09:55;22.88;;;12.90;;
62030;SDS011;62035;52.094;5.112;2022-10-31T04:12:26;25.55;;;13.10;;
62030;SDS011;62035;52.094;5.112;2022-10-31T04:14:57;21.52;;;12.18;;
62030;SDS011;62035;52.094;5.112;2022-10-31T04:17:29;24.00;;;12.60;;
62030;SDS011;62035;52.094;5.112;2022-10-31T04:20:01;25.70;;;13.35;;
62030;SDS011;62035;52.094;5.112;2022-10-31T04:22:31;20.10;;;11.82;;
62030;SDS011;62035;52.094;5.112;2022-10-31T04:24:59;23.40;;;12.88;;
62030;SDS011;62035;52.094;5.112;2022-10-31T04:27:26;24.33;;;12.73;;
62030;SDS011;62035;52.094;5.112;2022-10-31T04:29:54;22.25;;;13.23;;
62030;SDS011;62035;52.094;5.112;2022-10-31T04:32:21;22.10;;;12.52;;
62030;SDS011;62035;52.094;5.112;2022-10-31T04:34:49;25.27;;;14.27;;
62030;SDS011;62035;52.094;5.112;2022-10-31T04:37:17;22.23;;;13.07;;
62030;SDS011;62035;52.094;5.112;2022-10-31T04:39:45;23.48;;;14.00;;
62030;SDS011;62035;52.094;5.112;2022-10-31T04:42:13;27.13;;;13.18;;
62030;SDS011;62035;52.094;5.112;2022-10-31T04:44:40;25.70;;;13.55;;
62030;SDS011;62035;52.094;5.112;2022-10-31T04:47:08;23.88;;;13.10;;
62030;SDS011;62035;52.094;5.112;2022-10-31T04:49:35;21.27;;;12.43;;
62030;SDS011;62035;52.094;5.112;2022-10-31T04:52:03;22.23;;;13.10;;
62030;SDS011;62035;52.094;5.112;2022-10-31T04:54:31;26.30;;;14.07;;
62030;SDS011;62035;52.094;5.112;2022-10-31T04:57:00;25.77;;;13.95;;
62030;SDS011;62035;52.094;5.112;2022-10-31T04:59:27;28.20;;;14.20;;
62030;SDS011;62035;52.094;5.112;2022-10-31T05:01:55;24.83;;;14.13;;
62030;SDS011;62035;52.094;5.112;2022-10-31T05:04:22;27.65;;;13.85;;
62030;SDS011;62035;52.094;5.112;2022-10-31T05:06:50;25.85;;;13.63;;
62030;SDS011;62035;52.094;5.112;2022-10-31T05:09:17;27.45;;;13.82;;
62030;SDS011;62035;52.094;5.112;2022-10-31T05:11:45;22.55;;;13.32;;
62030;SDS011;62035;52.094;5.112;2022-10-31T05:14:14;22.13;;;12.93;;
62030;SDS011;62035;52.094;5.112;2022-10-31T05:16:41;24.80;;;13.10;;
62030;SDS011;62035;52.094;5.112;2022-10-31T05:19:09;22.75;;;13.25;;
62030;SDS011;62035;52.094;5.112;2022-10-31T05:21:36;21.73;;;13.13;;
62030;SDS011;62035;52.094;5.112;2022-10-31T05:24:04;24.70;;;13.60;;
62030;SDS011;62035;52.094;5.112;2022-10-31T05:26:33;23.35;;;13.15;;
62030;SDS011;62035;52.094;5.112;2022-10-31T05:29:00;22.80;;;12.65;;
62030;SDS011;62035;52.094;5.112;2022-10-31T05:31:29;20.08;;;12.77;;
62030;SDS011;62035;52.094;5.112;2022-10-31T05:33:57;26.67;;;13.82;;
62030;SDS011;62035;52.094;5.112;2022-10-31T05:36:24;21.77;;;13.27;;
62030;SDS011;62035;52.094;5.112;2022-10-31T05:38:52;21.55;;;12.35;;
62030;SDS011;62035;52.094;5.112;2022-10-31T05:41:20;22.23;;;12.88;;
62030;SDS011;62035;52.094;5.112;2022-10-31T05:43:47;23.20;;;11.98;;
62030;SDS011;62035;52.094;5.112;2022-10-31T05:46:15;22.77;;;13.20;;
62030;SDS011;62035;52.094;5.112;2022-10-31T05:48:44;22.90;;;11.80;;
62030;SDS011;62035;52.094;5.112;2022-10-31T05:51:12;26.67;;;13.88;;
62030;SDS011;62035;52.094;5.112;2022-10-31T05:53:39;28.92;;;14.50;;
62030;SDS011;62035;52.094;5.112;2022-10-31T05:56:07;24.02;;;12.95;;
62030;SDS011;62035;52.094;5.112;2022-10-31T05:58:34;22.45;;;13.38;;
62030;SDS011;62035;52.094;5.112;2022-10-31T06:01:02;27.02;;;13.13;;
62030;SDS011;62035;52.094;5.112;2022-10-31T06:03:30;24.52;;;12.63;;
62030;SDS011;62035;52.094;5.112;2022-10-31T06:05:59;23.65;;;13.90;;
62030;SDS011;62035;52.094;5.112;2022-10-31T06:08:26;24.45;;;12.90;;
62030;SDS011;62035;52.094;5.112;2022-10-31T06:10:54;25.45;;;13.35;;
62030;SDS011;62035;52.094;5.112;2022-10-31T06:13:21;29.48;;;13.65;;
62030;SDS011;62035;52.094;5.112;2022-10-31T06:15:49;26.77;;;14.65;;
62030;SDS011;62035;52.094;5.112;2022-10-31T06:18:16;32.35;;;15.52;;
62030;SDS011;62035;52.094;5.112;2022-10-31T06:20:44;35.00;;;15.32;;
62030;SDS011;62035;52.094;5.112;2022-10-31T06:23:13;43.97;;;15.77;;
62030;SDS011;62035;52.094;5.112;2022-10-31T06:25:41;46.50;;;15.63;;
62030;SDS011;62035;52.094;5.112;2022-10-31T06:28:08;46.95;;;17.58;;
62030;SDS011;62035;52.094;5.112;2022-10-31T06:30:36;37.10;;;15.55;;
62030;SDS011;62035;52.094;5.112;2022-10-31T06:33:03;47.17;;;16.05;;
62030;SDS011;62035;52.094;5.112;2022-10-31T06:35:32;36.55;;;14.60;;
62030;SDS011;62035;52.094;5.112;2022-10-31T06:37:59;39.72;;;14.38;;
62030;SDS011;62035;52.094;5.112;2022-10-31T06:40:28;65.95;;;15.20;;
62030;SDS011;62035;52.094;5.112;2022-10-31T06:42:56;41.53;;;14.65;;
62030;SDS011;62035;52.094;5.112;2022-10-31T06:45:26;57.50;;;14.55;;
62030;SDS011;62035;52.094;5.112;2022-10-31T06:47:54;40.17;;;15.60;;
62030;SDS011;62035;52.094;5.112;2022-10-31T06:50:23;45.35;;;16.58;;
62030;SDS011;62035;52.094;5.112;2022-10-31T06:52:51;41.22;;;14.57;;
62030;SDS011;62035;52.094;5.112;2022-10-31T06:55:19;55.20;;;13.88;;
62030;SDS011;62035;52.094;5.112;2022-10-31T06:57:52;31.20;;;14.38;;
62030;SDS011;62035;52.094;5.112;2022-10-31T07:00:21;51.72;;;15.57;;
62030;SDS011;62035;52.094;5.112;2022-10-31T07:02:53;60.08;;;15.82;;
62030;SDS011;62035;52.094;5.112;2022-10-31T07:07:51;31.55;;;13.43;;
62030;SDS011;62035;52.094;5.112;2022-10-31T07:10:20;29.45;;;15.18;;
62030;SDS011;62035;52.094;5.112;2022-10-31T07:12:51;30.25;;;14.48;;
62030;SDS011;62035;52.094;5.112;2022-10-31T07:15:23;36.88;;;16.00;;
62030;SDS011;62035;52.094;5.112;2022-10-31T07:17:52;25.00;;;14.70;;
62030;SDS011;62035;52.094;5.112;2022-10-31T07:20:20;32.58;;;16.05;;
62030;SDS011;62035;52.094;5.112;2022-10-31T07:22:47;36.15;;;15.98;;
62030;SDS011;62035;52.094;5.112;2022-10-31T07:25:15;28.70;;;16.00;;
62030;SDS011;62035;52.094;5.112;2022-10-31T07:27:43;30.58;;;14.93;;
62030;SDS011;62035;52.094;5.112;2022-10-31T07:30:12;27.67;;;14.98;;
62030;SDS011;62035;52.094;5.112;2022-10-31T07:32:43;28.55;;;14.77;;
62030;SDS011;62035;52.094;5.112;2022-10-31T07:35:13;25.77;;;14.05;;
62030;SDS011;62035;52.094;5.112;2022-10-31T07:37:43;27.85;;;14.38;;
62030;SDS011;62035;52.094;5.112;2022-10-31T07:40:11;24.90;;;14.00;;
62030;SDS011;62035;52.094;5.112;2022-10-31T07:42:40;29.10;;;15.35;;
62030;SDS011;62035;52.094;5.112;2022-10-31T07:45:12;26.10;;;13.95;;
62030;SDS011;62035;52.094;5.112;2022-10-31T07:47:42;28.17;;;14.85;;
62030;SDS011;62035;52.094;5.112;2022-10-31T07:50:13;28.95;;;14.73;;
62030;SDS011;62035;52.094;5.112;2022-10-31T07:52:44;25.52;;;14.80;;
62030;SDS011;62035;52.094;5.112;2022-10-31T07:55:12;25.77;;;14.35;;
62030;SDS011;62035;52.094;5.112;2022-10-31T07:57:40;31.27;;;16.27;;
62030;SDS011;62035;52.094;5.112;2022-10-31T08:00:09;29.38;;;15.55;;
62030;SDS011;62035;52.094;5.112;2022-10-31T08:02:39;27.00;;;16.20;;
62030;SDS011;62035;52.094;5.112;2022-10-31T08:05:07;31.17;;;16.67;;
62030;SDS011;62035;52.094;5.112;2022-10-31T08:07:35;32.08;;;15.82;;
62030;SDS011;62035;52.094;5.112;2022-10-31T08:10:04;33.55;;;15.90;;
62030;SDS011;62035;52.094;5.112;2022-10-31T08:12:32;30.15;;;16.90;;
62030;SDS011;62035;52.094;5.112;2022-10-31T08:15:00;31.20;;;16.95;;
62030;SDS011;62035;52.094;5.112;2022-10-31T08:17:29;29.17;;;16.10;;
62030;SDS011;62035;52.094;5.112;2022-10-31T08:19:56;26.77;;;16.73;;
62030;SDS011;62035;52.094;5.112;2022-10-31T08:22:24;31.05;;;15.57;;
62030;SDS011;62035;52.094;5.112;2022-10-31T08:24:51;28.55;;;15.68;;
62030;SDS011;62035;52.094;5.112;2022-10-31T08:27:19;26.23;;;14.52;;
62030;SDS011;62035;52.094;5.112;2022-10-31T08:29:47;25.92;;;14.00;;
62030;SDS011;62035;52.094;5.112;2022-10-31T08:32:14;23.50;;;12.77;;
62030;SDS011;62035;52.094;5.112;2022-10-31T08:34:43;21.33;;;12.30;;
62030;SDS011;62035;52.094;5.112;2022-10-31T08:37:11;23.98;;;13.40;;
62030;SDS011;62035;52.094;5.112;2022-10-31T08:39:38;22.65;;;13.68;;
62030;SDS011;62035;52.094;5.112;2022-10-31T08:42:06;20.58;;;12.57;;
62030;SDS011;62035;52.094;5.112;2022-10-31T08:44:33;23.17;;;13.30;;
62030;SDS011;62035;52.094;5.112;2022-10-31T08:47:01;23.75;;;12.75;;
62030;SDS011;62035;52.094;5.112;2022-10-31T08:49:28;18.80;;;12.02;;
62030;SDS011;62035;52.094;5.112;2022-10-31T08:51:57;21.63;;;12.45;;
62030;SDS011;62035;52.094;5.112;2022-10-31T08:54:25;20.95;;;12.88;;
62030;SDS011;62035;52.094;5.112;2022-10-31T08:56:53;23.55;;;12.95;;
62030;SDS011;62035;52.094;5.112;2022-10-31T08:59:22;23.65;;;13.07;;
62030;SDS011;62035;52.094;5.112;2022-10-31T09:01:49;24.50;;;12.90;;
62030;SDS011;62035;52.094;5.112;2022-10-31T09:04:17;22.50;;;13.05;;
62030;SDS011;62035;52.094;5.112;2022-10-31T09:06:44;23.02;;;13.27;;
62030;SDS011;62035;52.094;5.112;2022-10-31T09:09:13;28.70;;;13.80;;
62030;SDS011;62035;52.094;5.112;2022-10-31T09:11:41;19.92;;;12.90;;
62030;SDS011;62035;52.094;5.112;2022-10-31T09:14:08;28.40;;;13.50;;
62030;SDS011;62035;52.094;5.112;2022-10-31T09:16:36;22.85;;;12.88;;
62030;SDS011;62035;52.094;5.112;2022-10-31T09:19:03;25.10;;;13.93;;
62030;SDS011;62035;52.094;5.112;2022-10-31T09:21:31;31.50;;;14.45;;
62030;SDS011;62035;52.094;5.112;2022-10-31T09:23:58;26.92;;;14.50;;
62030;SDS011;62035;52.094;5.112;2022-10-31T09:26:27;27.25;;;14.75;;
62030;SDS011;62035;52.094;5.112;2022-10-31T09:28:56;29.17;;;14.65;;
62030;SDS011;62035;52.094;5.112;2022-10-31T09:31:24;24.25;;;14.82;;
62030;SDS011;62035;52.094;5.112;2022-10-31T09:33:52;24.65;;;13.88;;
62030;SDS011;62035;52.094;5.112;2022-10-31T09:36:20;25.88;;;13.82;;
62030;SDS011;62035;52.094;5.112;2022-10-31T09:38:47;29.88;;;14.05;;
62030;SDS011;62035;52.094;5.112;2022-10-31T09:41:17;24.73;;;14.25;;
62030;SDS011;62035;52.094;5.112;2022-10-31T09:43:55;25.50;;;15.07;;
62030;SDS011;62035;52.094;5.112;2022-10-31T09:46:36;34.90;;;15.55;;
62030;SDS011;62035;52.094;5.112;2022-10-31T09:49:25;31.70;;;16.02;;
62030;SDS011;62035;52.094;5.112;2022-10-31T09:52:11;32.28;;;16.35;;
62030;SDS011;62035;52.094;5.112;2022-10-31T09:54:49;27.45;;;15.27;;
62030;SDS011;62035;52.094;5.112;2022-10-31T09:57:24;28.25;;;15.15;;
62030;SDS011;62035;52.094;5.112;2022-10-31T10:00:00;28.77;;;15.88;;
62030;SDS011;62035;52.094;5.112;2022-10-31T10:05:03;26.55;;;14.48;;
62030;SDS011;62035;52.094;5.112;2022-10-31T10:07:40;25.42;;;14.98;;
62030;SDS011;62035;52.094;5.112;2022-10-31T10:10:30;28.92;;;15.85;;
62030;SDS011;62035;52.094;5.112;2022-10-31T10:13:24;23.77;;;13.80;;
62030;SDS011;62035;52.094;5.112;2022-10-31T10:16:11;23.85;;;13.07;;
62030;SDS011;62035;52.094;5.112;2022-10-31T10:19:02;27.40;;;13.60;;
62030;SDS011;62035;52.094;5.112;2022-10-31T10:21:50;24.58;;;12.70;;
62030;SDS011;62035;52.094;5.112;2022-10-31T10:24:33;22.42;;;13.15;;
62030;SDS011;62035;52.094;5.112;2022-10-31T10:27:22;23.30;;;12.85;;
62030;SDS011;62035;52.094;5.112;2022-10-31T10:30:01;25.52;;;12.50;;
62030;SDS011;62035;52.094;5.112;2022-10-31T10:32:40;25.80;;;13.35;;
62030;SDS011;62035;52.094;5.112;2022-10-31T10:35:17;22.80;;;12.20;;
62030;SDS011;62035;52.094;5.112;2022-10-31T10:37:52;22.00;;;12.90;;
62030;SDS011;62035;52.094;5.112;2022-10-31T10:40:26;23.90;;;13.68;;
62030;SDS011;62035;52.094;5.112;2022-10-31T10:42:57;26.00;;;13.88;;
62030;SDS011;62035;52.094;5.112;2022-10-31T10:45:46;22.50;;;12.55;;
62030;SDS011;62035;52.094;5.112;2022-10-31T10:48:52;21.30;;;13.00;;
62030;SDS011;62035;52.094;5.112;2022-10-31T10:51:33;19.90;;;12.80;;
62030;SDS011;62035;52.094;5.112;2022-10-31T10:54:10;22.98;;;13.02;;
62030;SDS011;62035;52.094;5.112;2022-10-31T10:57:09;19.90;;;12.48;;
62030;SDS011;62035;52.094;5.112;2022-10-31T10:59:49;19.35;;;12.00;;
62030;SDS011;62035;52.094;5.112;2022-10-31T11:02:19;24.50;;;12.05;;
62030;SDS011;62035;52.094;5.112;2022-10-31T11:04:52;22.05;;;12.73;;
62030;SDS011;62035;52.094;5.112;2022-10-31T11:07:23;20.95;;;12.75;;
62030;SDS011;62035;52.094;5.112;2022-10-31T11:10:01;22.95;;;12.52;;
62030;SDS011;62035;52.094;5.112;2022-10-31T11:12:38;28.15;;;13.32;;
62030;SDS011;62035;52.094;5.112;2022-10-31T11:15:08;19.95;;;13.13;;
62030;SDS011;62035;52.094;5.112;2022-10-31T11:17:48;20.63;;;12.40;;
62030;SDS011;62035;52.094;5.112;2022-10-31T11:20:27;24.90;;;13.87;;
62030;SDS011;62035;52.094;5.112;2022-10-31T11:25:31;21.83;;;12.82;;
62030;SDS011;62035;52.094;5.112;2022-10-31T11:27:59;21.30;;;13.57;;
62030;SDS011;62035;52.094;5.112;2022-10-31T11:30:28;25.92;;;13.63;;
62030;SDS011;62035;52.094;5.112;2022-10-31T11:32:57;23.48;;;13.93;;
62030;SDS011;62035;52.094;5.112;2022-10-31T11:35:27;25.58;;;14.02;;
62030;SDS011;62035;52.094;5.112;2022-10-31T11:37:56;25.38;;;13.60;;
62030;SDS011;62035;52.094;5.112;2022-10-31T11:40:27;28.25;;;13.77;;
62030;SDS011;62035;52.094;5.112;2022-10-31T11:42:55;28.42;;;13.90;;
62030;SDS011;62035;52.094;5.112;2022-10-31T11:45:27;30.55;;;15.45;;
62030;SDS011;62035;52.094;5.112;2022-10-31T11:47:59;27.48;;;15.60;;
62030;SDS011;62035;52.094;5.112;2022-10-31T11:50:35;29.50;;;15.48;;
62030;SDS011;62035;52.094;5.112;2022-10-31T11:53:11;30.10;;;15.60;;
62030;SDS011;62035;52.094;5.112;2022-10-31T11:55:44;26.85;;;15.95;;
62030;SDS011;62035;52.094;5.112;2022-10-31T11:58:20;30.45;;;16.77;;
62030;SDS011;62035;52.094;5.112;2022-10-31T12:00:49;38.05;;;17.38;;
62030;SDS011;62035;52.094;5.112;2022-10-31T12:03:26;31.53;;;16.73;;
62030;SDS011;62035;52.094;5.112;2022-10-31T12:06:07;34.65;;;16.75;;
62030;SDS011;62035;52.094;5.112;2022-10-31T12:08:41;31.92;;;17.35;;
62030;SDS011;62035;52.094;5.112;2022-10-31T12:11:11;33.15;;;17.38;;
62030;SDS011;62035;52.094;5.112;2022-10-31T12:14:06;31.50;;;17.17;;
62030;SDS011;62035;52.094;5.112;2022-10-31T12:16:54;39.35;;;18.15;;
62030;SDS011;62035;52.094;5.112;2022-10-31T12:19:34;31.70;;;16.98;;
62030;SDS011;62035;52.094;5.112;2022-10-31T12:22:11;35.85;;;19.15;;
62030;SDS011;62035;52.094;5.112;2022-10-31T12:24:57;33.45;;;16.75;;
62030;SDS011;62035;52.094;5.112;2022-10-31T12:27:55;36.13;;;16.00;;
62030;SDS011;62035;52.094;5.112;2022-10-31T12:30:40;35.58;;;18.20;;
62030;SDS011;62035;52.094;5.112;2022-10-31T12:33:27;35.22;;;16.80;;
62030;SDS011;62035;52.094;5.112;2022-10-31T12:39:25;32.58;;;16.33;;
62030;SDS011;62035;52.094;5.112;2022-10-31T12:42:09;30.92;;;15.48;;
62030;SDS011;62035;52.094;5.112;2022-10-31T12:45:00;32.95;;;17.55;;
62030;SDS011;62035;52.094;5.112;2022-10-31T12:48:00;36.15;;;16.73;;
62030;SDS011;62035;52.094;5.112;2022-10-31T12:50:50;38.97;;;17.27;;
62030;SDS011;62035;52.094;5.112;2022-10-31T12:53:32;33.05;;;16.33;;
62030;SDS011;62035;52.094;5.112;2022-10-31T12:56:23;30.73;;;16.88;;
62030;SDS011;62035;52.094;5.112;2022-10-31T12:59:07;35.08;;;17.42;;
62030;SDS011;62035;52.094;5.112;2022-10-31T13:01:45;42.38;;;17.25;;
62030;SDS011;62035;52.094;5.112;2022-10-31T13:04:26;35.22;;;16.77;;
62030;SDS011;62035;52.094;5.112;2022-10-31T13:07:08;38.40;;;17.67;;
62030;SDS011;62035;52.094;5.112;2022-10-31T13:09:46;28.40;;;16.65;;
62030;SDS011;62035;52.094;5.112;2022-10-31T13:12:23;37.15;;;17.30;;
62030;SDS011;62035;52.094;5.112;2022-10-31T13:14:55;35.42;;;17.48;;
62030;SDS011;62035;52.094;5.112;2022-10-31T13:17:31;36.08;;;18.30;;
62030;SDS011;62035;52.094;5.112;2022-10-31T13:20:13;35.45;;;16.88;;
62030;SDS011;62035;52.094;5.112;2022-10-31T13:22:51;39.95;;;18.05;;
62030;SDS011;62035;52.094;5.112;2022-10-31T13:25:24;38.38;;;18.33;;
62030;SDS011;62035;52.094;5.112;2022-10-31T13:27:59;36.25;;;17.75;;
62030;SDS011;62035;52.094;5.112;2022-10-31T13:30:33;42.92;;;18.50;;
62030;SDS011;62035;52.094;5.112;2022-10-31T13:33:08;38.92;;;17.55;;
62030;SDS011;62035;52.094;5.112;2022-10-31T13:35:43;37.45;;;17.67;;
62030;SDS011;62035;52.094;5.112;2022-10-31T13:38:22;43.80;;;17.98;;
62030;SDS011;62035;52.094;5.112;2022-10-31T13:41:01;39.00;;;19.77;;
62030;SDS011;62035;52.094;5.112;2022-10-31T13:43:47;36.38;;;18.55;;
62030;SDS011;62035;52.094;5.112;2022-10-31T13:46:34;35.25;;;16.98;;
62030;SDS011;62035;52.094;5.112;2022-10-31T13:49:20;36.20;;;17.40;;
62030;SDS011;62035;52.094;5.112;2022-10-31T13:51:53;41.13;;;17.38;;
62030;SDS011;62035;52.094;5.112;2022-10-31T13:54:33;40.78;;;17.48;;
62030;SDS011;62035;52.094;5.112;2022-10-31T13:57:06;44.28;;;17.90;;
62030;SDS011;62035;52.094;5.112;2022-10-31T13:59:45;39.13;;;18.33;;
62030;SDS011;62035;52.094;5.112;2022-10-31T14:02:19;35.33;;;16.70;;
62030;SDS011;62035;52.094;5.112;2022-10-31T14:04:56;38.60;;;16.10;;
62030;SDS011;62035;52.094;5.112;2022-10-31T14:07:28;36.63;;;17.15;;
62030;SDS011;62035;52.094;5.112;2022-10-31T14:09:59;37.88;;;15.80;;
62030;SDS011;62035;52.094;5.112;2022-10-31T14:12:33;37.22;;;16.52;;
62030;SDS011;62035;52.094;5.112;2022-10-31T14:15:12;34.35;;;17.02;;
62030;SDS011;62035;52.094;5.112;2022-10-31T14:17:46;33.45;;;17.48;;
62030;SDS011;62035;52.094;5.112;2022-10-31T14:20:21;39.47;;;17.27;;
62030;SDS011;62035;52.094;5.112;2022-10-31T14:23:10;38.78;;;18.67;;
62030;SDS011;62035;52.094;5.112;2022-10-31T14:26:16;36.65;;;17.48;;
62030;SDS011;62035;52.094;5.112;2022-10-31T14:28:57;38.42;;;16.92;;
62030;SDS011;62035;52.094;5.112;2022-10-31T14:31:30;33.83;;;17.20;;
62030;SDS011;62035;52.094;5.112;2022-10-31T14:34:05;38.85;;;18.55;;
62030;SDS011;62035;52.094;5.112;2022-10-31T14:36:50;34.55;;;17.45;;
62030;SDS011;62035;52.094;5.112;2022-10-31T14:39:38;43.88;;;18.30;;
62030;SDS011;62035;52.094;5.112;2022-10-31T14:42:26;43.10;;;17.75;;
62030;SDS011;62035;52.094;5.112;2022-10-31T14:45:15;35.33;;;17.58;;
62030;SDS011;62035;52.094;5.112;2022-10-31T14:47:59;36.15;;;17.17;;
62030;SDS011;62035;52.094;5.112;2022-10-31T14:50:43;38.90;;;17.38;;
62030;SDS011;62035;52.094;5.112;2022-10-31T14:53:18;37.60;;;17.80;;
62030;SDS011;62035;52.094;5.112;2022-10-31T14:55:53;41.20;;;17.98;;
62030;SDS011;62035;52.094;5.112;2022-10-31T14:58:23;39.80;;;17.08;;
62030;SDS011;62035;52.094;5.112;2022-10-31T15:01:01;34.20;;;18.05;;
62030;SDS011;62035;52.094;5.112;2022-10-31T15:03:31;38.10;;;16.85;;
62030;SDS011;62035;52.094;5.112;2022-10-31T15:06:05;41.00;;;18.52;;
62030;SDS011;62035;52.094;5.112;2022-10-31T15:08:40;38.83;;;17.45;;
62030;SDS011;62035;52.094;5.112;2022-10-31T15:11:13;32.05;;;17.15;;
62030;SDS011;62035;52.094;5.112;2022-10-31T15:13:43;40.03;;;17.60;;